createdAt,value
2019-05-06T00:00:27.512Z,6.46
2019-05-06T00:01:28.907Z,6.48
2019-05-06T00:02:30.282Z,6.48
2019-05-06T00:03:31.673Z,6.40
2019-05-06T00:04:34.071Z,6.36
2019-05-06T00:05:34.378Z,6.39
2019-05-06T00:06:35.763Z,6.36
2019-05-06T00:07:37.145Z,6.42
2019-05-06T00:08:38.524Z,6.40
2019-05-06T00:09:39.907Z,6.40
2019-05-06T00:10:41.291Z,6.46
2019-05-06T00:11:44.718Z,6.38
2019-05-06T00:12:44.472Z,6.35
2019-05-06T00:13:45.375Z,6.35
2019-05-06T00:14:46.765Z,6.33
2019-05-06T00:15:48.142Z,6.42
2019-05-06T00:16:49.528Z,6.27
2019-05-06T00:17:50.912Z,6.30
2019-05-06T00:18:54.015Z,6.39
2019-05-06T00:19:53.963Z,6.33
2019-05-06T00:20:57.462Z,6.32
2019-05-06T00:21:56.334Z,6.30
2019-05-06T00:22:57.726Z,6.30
2019-05-06T00:23:59.113Z,6.30
2019-05-06T00:25:00.497Z,6.28
2019-05-06T00:26:03.906Z,6.21
2019-05-06T00:27:04.719Z,6.21
2019-05-06T00:28:06.039Z,6.21
2019-05-06T00:29:05.921Z,6.11
2019-05-06T00:30:07.299Z,6.13
2019-05-06T00:31:12.839Z,6.13
2019-05-06T00:32:10.043Z,6.11
2019-05-06T00:33:13.302Z,6.14
2019-05-06T00:34:13.866Z,6.06
2019-05-06T00:35:14.186Z,6.17
2019-05-06T00:36:15.471Z,6.05
2019-05-06T00:37:16.861Z,6.05
2019-05-06T00:38:18.250Z,6.02
2019-05-06T00:39:19.633Z,6.03
2019-05-06T00:40:21.019Z,6.08
2019-05-06T00:41:24.553Z,6.01
2019-05-06T00:42:24.623Z,6.01
2019-05-06T00:43:25.104Z,5.96
2019-05-06T00:44:26.494Z,5.90
2019-05-06T00:45:27.884Z,5.88
2019-05-06T00:46:29.259Z,5.84
2019-05-06T00:47:30.652Z,5.95
2019-05-06T00:48:33.936Z,5.87
2019-05-06T00:49:34.413Z,5.81
2019-05-06T00:50:34.874Z,5.85
2019-05-06T00:51:36.086Z,5.78
2019-05-06T00:52:37.469Z,5.80
2019-05-06T00:53:38.854Z,5.81
2019-05-06T00:54:40.233Z,5.81
2019-05-06T00:55:41.615Z,5.77
2019-05-06T00:56:44.631Z,5.77
2019-05-06T00:57:44.486Z,5.75
2019-05-06T00:58:45.685Z,5.74
2019-05-06T00:59:47.069Z,5.69
2019-05-06T01:00:48.457Z,5.81
2019-05-06T01:01:49.834Z,5.75
2019-05-06T01:02:51.225Z,5.70
2019-05-06T01:03:53.699Z,5.66
2019-05-06T01:04:54.149Z,5.70
2019-05-06T01:05:55.305Z,5.63
2019-05-06T01:06:56.685Z,5.65
2019-05-06T01:07:58.069Z,5.55
2019-05-06T01:08:59.457Z,5.52
2019-05-06T01:10:00.836Z,5.55
2019-05-06T01:11:03.901Z,5.47
2019-05-06T01:12:03.715Z,5.45
2019-05-06T01:13:04.916Z,5.40
2019-05-06T01:14:06.294Z,5.44
2019-05-06T01:15:07.672Z,5.40
2019-05-06T01:16:09.072Z,5.37
2019-05-06T01:17:10.462Z,5.35
2019-05-06T01:18:13.659Z,5.26
2019-05-06T01:19:14.131Z,5.32
2019-05-06T01:20:14.551Z,5.32
2019-05-06T01:21:15.932Z,5.26
2019-05-06T01:22:17.314Z,5.29
2019-05-06T01:23:18.705Z,5.29
2019-05-06T01:24:20.089Z,5.26
2019-05-06T01:25:23.638Z,5.20
2019-05-06T01:26:24.267Z,5.22
2019-05-06T01:27:24.168Z,5.11
2019-05-06T01:28:25.554Z,5.22
2019-05-06T01:29:26.937Z,5.19
2019-05-06T01:30:28.333Z,5.17
2019-05-06T01:31:42.264Z,5.17
2019-05-06T01:32:31.057Z,5.11
2019-05-06T01:33:34.852Z,5.11
2019-05-06T01:34:34.020Z,5.02
2019-05-06T01:35:35.263Z,4.99
2019-05-06T01:36:36.481Z,5.05
2019-05-06T01:37:37.863Z,4.96
2019-05-06T01:38:39.249Z,5.06
2019-05-06T01:39:40.632Z,4.97
2019-05-06T01:40:43.957Z,4.96
2019-05-06T01:41:44.712Z,4.88
2019-05-06T01:42:44.745Z,4.94
2019-05-06T01:43:46.113Z,4.87
2019-05-06T01:44:47.493Z,4.91
2019-05-06T01:45:48.875Z,4.83
2019-05-06T01:46:50.262Z,4.83
2019-05-06T01:47:51.641Z,4.74
2019-05-06T01:48:53.636Z,4.59
2019-05-06T01:49:54.378Z,4.57
2019-05-06T01:50:55.755Z,4.56
2019-05-06T01:51:57.143Z,4.54
2019-05-06T01:52:58.526Z,4.53
2019-05-06T01:53:59.911Z,4.56
2019-05-06T01:55:01.291Z,4.47
2019-05-06T01:56:03.663Z,4.47
2019-05-06T01:57:04.426Z,4.51
2019-05-06T01:58:05.364Z,4.42
2019-05-06T01:59:06.743Z,4.43
2019-05-06T02:00:08.127Z,4.34
2019-05-06T02:01:09.510Z,4.50
2019-05-06T02:02:11.783Z,4.44
2019-05-06T02:03:14.719Z,4.32
2019-05-06T02:04:14.511Z,4.31
2019-05-06T02:05:15.895Z,4.42
2019-05-06T02:06:17.281Z,4.34
2019-05-06T02:07:18.661Z,4.26
2019-05-06T02:08:20.052Z,4.28
2019-05-06T02:09:21.435Z,4.26
2019-05-06T02:10:23.858Z,4.24
2019-05-06T02:11:24.258Z,4.24
2019-05-06T02:12:25.513Z,4.28
2019-05-06T02:13:26.898Z,4.31
2019-05-06T02:14:28.288Z,4.25
2019-05-06T02:15:29.666Z,4.18
2019-05-06T02:16:31.046Z,4.18
2019-05-06T02:17:34.368Z,4.14
2019-05-06T02:18:33.949Z,4.13
2019-05-06T02:19:35.137Z,4.11
2019-05-06T02:20:36.526Z,4.13
2019-05-06T02:21:37.906Z,4.14
2019-05-06T02:22:39.291Z,4.07
2019-05-06T02:23:40.676Z,4.13
2019-05-06T02:24:43.864Z,4.10
2019-05-06T02:25:44.688Z,4.06
2019-05-06T02:26:44.746Z,4.04
2019-05-06T02:27:46.133Z,4.08
2019-05-06T02:28:47.525Z,4.08
2019-05-06T02:29:48.911Z,4.00
2019-05-06T02:30:50.296Z,4.02
2019-05-06T02:31:54.611Z,4.06
2019-05-06T02:32:55.389Z,4.02
2019-05-06T02:33:55.779Z,4.04
2019-05-06T02:34:55.736Z,3.95
2019-05-06T02:35:57.115Z,3.90
2019-05-06T02:36:58.503Z,3.90
2019-05-06T02:37:59.886Z,3.89
2019-05-06T02:39:03.407Z,3.80
2019-05-06T02:40:04.114Z,3.78
2019-05-06T02:41:03.981Z,3.80
2019-05-06T02:42:05.347Z,3.80
2019-05-06T02:43:06.725Z,3.74
2019-05-06T02:44:10.198Z,3.81
2019-05-06T02:45:09.455Z,3.67
2019-05-06T02:46:12.878Z,3.63
2019-05-06T02:47:13.736Z,3.60
2019-05-06T02:48:13.991Z,3.60
2019-05-06T02:49:14.883Z,3.64
2019-05-06T02:50:16.265Z,3.62
2019-05-06T02:51:17.663Z,3.64
2019-05-06T02:52:19.046Z,3.56
2019-05-06T02:53:20.429Z,3.53
2019-05-06T02:54:23.463Z,3.68
2019-05-06T02:55:23.563Z,3.57
2019-05-06T02:56:24.500Z,3.52
2019-05-06T02:57:25.903Z,3.52
2019-05-06T02:58:27.282Z,3.49
2019-05-06T02:59:28.655Z,3.62
2019-05-06T03:00:32.574Z,3.52
2019-05-06T03:01:33.851Z,3.52
2019-05-06T03:02:41.878Z,3.49
2019-05-06T03:03:34.183Z,3.46
2019-05-06T03:04:35.424Z,3.46
2019-05-06T03:05:36.804Z,3.52
2019-05-06T03:06:38.232Z,3.50
2019-05-06T03:07:39.586Z,3.53
2019-05-06T03:08:43.211Z,3.45
2019-05-06T03:09:44.586Z,3.50
2019-05-06T03:10:44.354Z,3.50
2019-05-06T03:11:44.965Z,3.45
2019-05-06T03:12:46.345Z,3.52
2019-05-06T03:13:47.730Z,3.50
2019-05-06T03:14:49.129Z,3.52
2019-05-06T03:15:50.508Z,3.52
2019-05-06T03:16:53.806Z,3.52
2019-05-06T03:17:55.333Z,3.50
2019-05-06T03:18:54.577Z,3.53
2019-05-06T03:19:55.963Z,3.59
2019-05-06T03:20:57.343Z,3.49
2019-05-06T03:21:58.730Z,3.49
2019-05-06T03:23:03.521Z,3.46
2019-05-06T03:24:04.023Z,3.50
2019-05-06T03:25:06.297Z,3.46
2019-05-06T03:26:06.418Z,3.52
2019-05-06T03:27:05.535Z,3.49
2019-05-06T03:28:06.921Z,3.53
2019-05-06T03:29:08.301Z,3.53
2019-05-06T03:30:09.686Z,3.54
2019-05-06T03:31:15.612Z,3.54
2019-05-06T03:32:21.580Z,3.54
2019-05-06T03:33:37.028Z,3.57
2019-05-06T03:34:35.448Z,3.54
2019-05-06T03:35:32.244Z,3.54
2019-05-06T03:36:25.528Z,3.50
2019-05-06T03:37:19.352Z,3.53
2019-05-06T03:38:22.707Z,3.60
2019-05-06T03:39:23.250Z,3.56
2019-05-06T03:40:24.339Z,3.54
2019-05-06T03:41:26.717Z,3.57
2019-05-06T03:42:26.119Z,3.52
2019-05-06T03:43:27.504Z,3.56
2019-05-06T03:44:28.892Z,3.57
2019-05-06T03:45:33.288Z,3.54
2019-05-06T03:46:33.489Z,3.59
2019-05-06T03:47:34.569Z,3.53
2019-05-06T03:48:34.313Z,3.52
2019-05-06T03:49:35.702Z,3.60
2019-05-06T03:50:37.089Z,3.62
2019-05-06T03:51:38.484Z,3.44
2019-05-06T03:52:42.880Z,3.62
2019-05-06T03:53:43.169Z,3.62
2019-05-06T03:54:45.020Z,3.62
2019-05-06T03:55:46.786Z,3.64
2019-05-06T03:56:45.249Z,3.70
2019-05-06T03:57:46.637Z,3.74
2019-05-06T03:58:48.038Z,3.82
2019-05-06T03:59:49.428Z,3.88
2019-05-06T04:00:52.883Z,3.86
2019-05-06T04:01:53.466Z,3.84
2019-05-06T04:02:53.787Z,3.89
2019-05-06T04:03:57.248Z,3.93
2019-05-06T04:04:56.809Z,4.00
2019-05-06T04:05:57.572Z,4.04
2019-05-06T04:06:58.954Z,4.06
2019-05-06T04:08:03.615Z,4.08
2019-05-06T04:09:03.643Z,4.11
2019-05-06T04:10:03.564Z,4.13
2019-05-06T04:11:04.387Z,4.26
2019-05-06T04:12:05.780Z,4.26
2019-05-06T04:13:07.170Z,4.32
2019-05-06T04:14:08.557Z,4.26
2019-05-06T04:15:09.938Z,4.43
2019-05-06T04:16:13.554Z,4.36
2019-05-06T04:17:13.047Z,4.44
2019-05-06T04:18:14.035Z,4.47
2019-05-06T04:19:15.420Z,4.47
2019-05-06T04:20:16.819Z,4.53
2019-05-06T04:21:18.216Z,4.59
2019-05-06T04:22:19.596Z,4.68
2019-05-06T04:23:23.184Z,4.72
2019-05-06T04:24:22.917Z,4.65
2019-05-06T04:25:23.697Z,4.86
2019-05-06T04:26:25.083Z,4.87
2019-05-06T04:27:26.480Z,4.86
2019-05-06T04:28:27.863Z,4.99
2019-05-06T04:29:29.259Z,4.94
2019-05-06T04:30:33.193Z,5.05
2019-05-06T04:31:33.585Z,5.08
2019-05-06T04:32:34.100Z,5.05
2019-05-06T04:33:34.713Z,5.15
2019-05-06T04:34:36.147Z,5.09
2019-05-06T04:35:37.533Z,5.22
2019-05-06T04:36:38.931Z,5.23
2019-05-06T04:37:42.731Z,5.40
2019-05-06T04:38:43.414Z,5.45
2019-05-06T04:39:43.400Z,5.48
2019-05-06T04:40:44.417Z,5.63
2019-05-06T04:41:45.812Z,5.74
2019-05-06T04:42:47.210Z,5.99
2019-05-06T04:43:48.610Z,6.35
2019-05-06T04:44:52.931Z,7.00
2019-05-06T04:45:53.712Z,7.82
2019-05-06T04:46:54.475Z,8.52
2019-05-06T04:47:54.244Z,9.38
2019-05-06T04:48:55.411Z,10.07
2019-05-06T04:49:56.798Z,10.46
2019-05-06T04:50:58.199Z,10.70
2019-05-06T04:51:59.586Z,10.44
2019-05-06T04:53:03.998Z,10.22
2019-05-06T04:54:04.239Z,9.85
2019-05-06T04:55:03.900Z,9.50
2019-05-06T04:56:05.044Z,8.93
2019-05-06T04:57:06.437Z,8.54
2019-05-06T04:58:07.840Z,8.27
2019-05-06T04:59:09.223Z,8.04
2019-05-06T05:00:12.773Z,7.85
2019-05-06T05:01:15.607Z,7.67
2019-05-06T05:02:13.405Z,7.54
2019-05-06T05:03:14.699Z,7.36
2019-05-06T05:04:28.341Z,7.34
2019-05-06T05:05:17.434Z,7.14
2019-05-06T05:06:18.830Z,7.04
2019-05-06T05:07:22.302Z,7.05
2019-05-06T05:08:22.349Z,7.04
2019-05-06T05:09:23.118Z,7.14
2019-05-06T05:10:24.288Z,7.15
2019-05-06T05:11:25.687Z,7.16
2019-05-06T05:12:27.081Z,7.27
2019-05-06T05:13:28.481Z,7.21
2019-05-06T05:14:29.868Z,7.41
2019-05-06T05:15:32.544Z,7.63
2019-05-06T05:16:33.165Z,7.84
2019-05-06T05:17:33.973Z,8.03
2019-05-06T05:18:35.417Z,8.13
2019-05-06T05:19:36.801Z,8.03
2019-05-06T05:20:43.942Z,7.92
2019-05-06T05:21:39.550Z,7.85
2019-05-06T05:22:42.349Z,7.77
2019-05-06T05:23:42.837Z,7.79
2019-05-06T05:24:43.633Z,7.76
2019-05-06T05:25:45.023Z,7.70
2019-05-06T05:26:47.135Z,7.82
2019-05-06T05:27:47.776Z,7.96
2019-05-06T05:28:49.170Z,8.14
2019-05-06T05:29:52.048Z,8.29
2019-05-06T05:30:52.264Z,8.52
2019-05-06T05:31:53.254Z,8.61
2019-05-06T05:32:54.650Z,8.71
2019-05-06T05:33:56.036Z,8.73
2019-05-06T05:34:57.426Z,8.82
2019-05-06T05:35:58.830Z,8.89
2019-05-06T05:37:00.229Z,9.15
2019-05-06T05:38:02.923Z,9.38
2019-05-06T05:39:03.379Z,9.65
2019-05-06T05:40:04.315Z,9.73
2019-05-06T05:41:05.706Z,9.73
2019-05-06T05:42:07.103Z,9.52
2019-05-06T05:43:08.497Z,9.48
2019-05-06T05:44:11.900Z,9.26
2019-05-06T05:45:12.878Z,9.06
2019-05-06T05:46:12.756Z,8.94
2019-05-06T05:47:14.039Z,8.91
2019-05-06T05:48:15.435Z,8.89
2019-05-06T05:49:19.076Z,8.86
2019-05-06T05:50:18.192Z,8.82
2019-05-06T05:51:19.680Z,8.82
2019-05-06T05:52:22.269Z,8.89
2019-05-06T05:53:22.577Z,8.98
2019-05-06T05:54:23.891Z,8.93
2019-05-06T05:55:25.286Z,9.01
2019-05-06T05:56:26.679Z,9.17
2019-05-06T05:57:28.074Z,8.98
2019-05-06T05:58:29.492Z,9.08
2019-05-06T05:59:32.715Z,9.08
2019-05-06T06:00:32.425Z,9.13
2019-05-06T06:01:33.630Z,9.10
2019-05-06T06:02:35.023Z,9.24
2019-05-06T06:03:36.420Z,9.37
2019-05-06T06:04:50.727Z,9.49
2019-05-06T06:05:39.214Z,9.60
2019-05-06T06:06:42.231Z,9.75
2019-05-06T06:07:42.237Z,9.83
2019-05-06T06:08:43.376Z,9.86
2019-05-06T06:09:44.763Z,9.78
2019-05-06T06:10:46.154Z,9.85
2019-05-06T06:11:47.543Z,9.95
2019-05-06T06:12:48.935Z,9.85
2019-05-06T06:13:52.169Z,9.85
2019-05-06T06:14:53.540Z,9.81
2019-05-06T06:15:53.033Z,9.78
2019-05-06T06:16:54.433Z,9.83
2019-05-06T06:17:55.827Z,9.93
2019-05-06T06:18:57.221Z,10.02
2019-05-06T06:19:58.673Z,9.95
2019-05-06T06:21:13.734Z,10.14
2019-05-06T06:22:02.754Z,10.49
2019-05-06T06:23:02.945Z,10.88
2019-05-06T06:24:04.136Z,11.54
2019-05-06T06:25:05.540Z,12.58
2019-05-06T06:26:06.940Z,13.84
2019-05-06T06:27:08.336Z,15.27
2019-05-06T06:28:11.846Z,16.77
2019-05-06T06:29:12.431Z,17.95
2019-05-06T06:30:12.909Z,19.13
2019-05-06T06:31:13.860Z,20.19
2019-05-06T06:32:15.269Z,21.16
2019-05-06T06:33:16.662Z,21.79
2019-05-06T06:34:18.062Z,22.08
2019-05-06T06:35:19.505Z,22.41
2019-05-06T06:36:22.932Z,22.74
2019-05-06T06:37:22.615Z,22.76
2019-05-06T06:38:23.839Z,23.23
2019-05-06T06:39:25.116Z,23.41
2019-05-06T06:40:26.521Z,23.69
2019-05-06T06:41:27.959Z,23.92
2019-05-06T06:42:29.370Z,24.05
2019-05-06T06:43:32.297Z,24.33
2019-05-06T06:44:33.109Z,25.04
2019-05-06T06:45:33.522Z,25.34
2019-05-06T06:46:34.925Z,25.48
2019-05-06T06:47:36.432Z,24.83
2019-05-06T06:48:37.853Z,24.06
2019-05-06T06:49:39.266Z,24.06
2019-05-06T06:50:42.510Z,24.09
2019-05-06T06:51:42.473Z,24.19
2019-05-06T06:52:43.435Z,23.12
2019-05-06T06:53:44.840Z,23.50
2019-05-06T06:54:46.264Z,24.26
2019-05-06T06:55:47.674Z,24.80
2019-05-06T06:57:02.472Z,24.89
2019-05-06T06:57:51.794Z,25.42
2019-05-06T06:58:52.480Z,25.24
2019-05-06T06:59:53.238Z,23.86
2019-05-06T07:00:54.617Z,23.09
2019-05-06T07:01:56.029Z,22.17
2019-05-06T07:02:57.427Z,21.55
2019-05-06T07:03:58.836Z,21.82
2019-05-06T07:05:02.242Z,22.70
2019-05-06T07:06:02.305Z,23.74
2019-05-06T07:07:03.211Z,24.42
2019-05-06T07:08:04.367Z,24.98
2019-05-06T07:09:05.772Z,25.02
2019-05-06T07:10:07.187Z,24.24
2019-05-06T07:11:08.551Z,23.60
2019-05-06T07:12:13.029Z,23.67
2019-05-06T07:13:12.160Z,23.93
2019-05-06T07:14:13.746Z,24.46
2019-05-06T07:15:14.089Z,25.24
2019-05-06T07:16:15.528Z,25.30
2019-05-06T07:17:16.935Z,25.83
2019-05-06T07:18:18.346Z,24.89
2019-05-06T07:19:19.758Z,24.42
2019-05-06T07:20:22.889Z,24.77
2019-05-06T07:21:22.603Z,25.23
2019-05-06T07:22:23.947Z,25.35
2019-05-06T07:23:25.362Z,24.97
2019-05-06T07:24:26.776Z,25.34
2019-05-06T07:25:28.234Z,26.03
2019-05-06T07:26:31.692Z,26.78
2019-05-06T07:27:32.352Z,27.25
2019-05-06T07:28:32.627Z,27.88
2019-05-06T07:29:33.775Z,28.20
2019-05-06T07:30:35.193Z,28.17
2019-05-06T07:31:37.115Z,27.87
2019-05-06T07:32:38.538Z,28.25
2019-05-06T07:33:39.969Z,28.32
2019-05-06T07:34:42.058Z,28.14
2019-05-06T07:35:43.921Z,28.11
2019-05-06T07:36:44.129Z,28.43
2019-05-06T07:37:45.539Z,28.52
2019-05-06T07:38:46.961Z,28.87
2019-05-06T07:39:48.387Z,28.94
2019-05-06T07:40:49.801Z,28.74
2019-05-06T07:41:53.298Z,28.52
2019-05-06T07:42:52.732Z,28.15
2019-05-06T07:43:54.017Z,27.72
2019-05-06T07:44:55.428Z,27.77
2019-05-06T07:45:56.840Z,28.21
2019-05-06T07:46:58.251Z,28.87
2019-05-06T07:47:59.664Z,28.72
2019-05-06T07:49:03.036Z,27.87
2019-05-06T07:50:02.649Z,27.49
2019-05-06T07:51:03.918Z,27.88
2019-05-06T07:52:05.318Z,26.88
2019-05-06T07:53:06.736Z,25.71
2019-05-06T07:54:08.176Z,24.74
2019-05-06T07:55:11.892Z,24.30
2019-05-06T07:56:12.605Z,23.25
2019-05-06T07:57:12.670Z,22.24
2019-05-06T07:58:14.014Z,22.46
2019-05-06T07:59:15.178Z,22.12
2019-05-06T08:00:16.673Z,22.42
2019-05-06T08:01:18.080Z,22.12
2019-05-06T08:02:19.494Z,21.51
2019-05-06T08:03:22.244Z,21.08
2019-05-06T08:04:23.306Z,20.58
2019-05-06T08:05:24.717Z,19.86
2019-05-06T08:06:26.125Z,19.31
2019-05-06T08:07:27.537Z,18.83
2019-05-06T08:08:28.951Z,19.25
2019-05-06T08:09:32.452Z,20.38
2019-05-06T08:10:33.126Z,21.66
2019-05-06T08:11:33.099Z,22.67
2019-05-06T08:12:34.506Z,23.87
2019-05-06T08:13:35.906Z,23.64
2019-05-06T08:14:37.317Z,23.41
2019-05-06T08:15:38.731Z,23.86
2019-05-06T08:16:42.453Z,23.72
2019-05-06T08:17:42.414Z,23.12
2019-05-06T08:18:43.730Z,23.06
2019-05-06T08:19:45.134Z,22.82
2019-05-06T08:20:46.554Z,22.06
2019-05-06T08:21:47.961Z,21.66
2019-05-06T08:22:49.370Z,20.93
2019-05-06T08:23:52.271Z,20.34
2019-05-06T08:24:53.226Z,19.61
2019-05-06T08:26:08.361Z,19.28
2019-05-06T08:26:54.883Z,18.84
2019-05-06T08:27:56.298Z,18.66
2019-05-06T08:28:57.709Z,18.42
2019-05-06T08:29:59.113Z,18.16
2019-05-06T08:31:02.238Z,17.83
2019-05-06T08:32:02.927Z,18.29
2019-05-06T08:33:03.257Z,18.49
2019-05-06T08:34:04.661Z,19.07
2019-05-06T08:35:06.069Z,19.13
2019-05-06T08:36:11.497Z,18.84
2019-05-06T08:37:08.859Z,18.64
2019-05-06T08:38:11.996Z,18.68
2019-05-06T08:39:13.086Z,18.99
2019-05-06T08:40:12.989Z,19.85
2019-05-06T08:41:14.425Z,20.69
2019-05-06T08:42:15.851Z,21.73
2019-05-06T08:43:17.231Z,22.26
2019-05-06T08:44:18.639Z,22.96
2019-05-06T08:45:21.935Z,23.47
2019-05-06T08:46:23.251Z,23.34
2019-05-06T08:47:22.791Z,23.39
2019-05-06T08:48:24.204Z,24.02
2019-05-06T08:49:25.612Z,24.77
2019-05-06T08:50:27.018Z,25.66
2019-05-06T08:51:28.432Z,25.59
2019-05-06T08:52:29.832Z,25.02
2019-05-06T08:53:32.820Z,24.05
2019-05-06T08:54:32.623Z,23.25
2019-05-06T08:55:34.044Z,23.35
2019-05-06T08:56:35.451Z,24.27
2019-05-06T08:57:36.863Z,24.70
2019-05-06T08:58:38.267Z,25.41
2019-05-06T08:59:42.261Z,26.03
2019-05-06T09:00:42.792Z,26.71
2019-05-06T09:01:42.650Z,26.78
2019-05-06T09:02:46.142Z,27.11
2019-05-06T09:03:45.214Z,27.28
2019-05-06T09:04:46.634Z,28.06
2019-05-06T09:05:48.039Z,27.69
2019-05-06T09:06:49.468Z,27.78
2019-05-06T09:07:52.340Z,27.58
2019-05-06T09:08:52.260Z,27.03
2019-05-06T09:09:53.673Z,26.16
2019-05-06T09:10:55.091Z,25.14
2019-05-06T09:11:56.505Z,24.04
2019-05-06T09:12:57.912Z,23.07
2019-05-06T09:13:59.321Z,22.26
2019-05-06T09:15:03.262Z,21.61
2019-05-06T09:16:02.481Z,20.93
2019-05-06T09:17:03.481Z,20.37
2019-05-06T09:18:04.890Z,19.83
2019-05-06T09:19:06.304Z,19.13
2019-05-06T09:20:07.712Z,18.74
2019-05-06T09:21:09.119Z,18.14
2019-05-06T09:22:12.781Z,17.86
2019-05-06T09:23:12.429Z,17.18
2019-05-06T09:24:13.265Z,16.95
2019-05-06T09:25:14.672Z,16.47
2019-05-06T09:26:16.076Z,16.10
2019-05-06T09:27:17.478Z,15.74
2019-05-06T09:28:18.882Z,15.53
2019-05-06T09:29:20.284Z,15.22
2019-05-06T09:30:22.935Z,15.19
2019-05-06T09:31:23.142Z,15.04
2019-05-06T09:32:24.457Z,14.94
2019-05-06T09:33:25.843Z,14.72
2019-05-06T09:34:27.259Z,14.66
2019-05-06T09:35:28.671Z,15.07
2019-05-06T09:36:41.351Z,16.22
2019-05-06T09:37:32.528Z,17.35
2019-05-06T09:38:32.816Z,18.29
2019-05-06T09:39:34.222Z,19.25
2019-05-06T09:40:35.630Z,20.17
2019-05-06T09:41:37.099Z,20.79
2019-05-06T09:42:38.432Z,21.79
2019-05-06T09:43:39.846Z,22.63
2019-05-06T09:44:42.713Z,23.31
2019-05-06T09:45:42.731Z,23.67
2019-05-06T09:46:43.992Z,24.26
2019-05-06T09:47:45.404Z,24.70
2019-05-06T09:48:46.818Z,25.01
2019-05-06T09:49:48.224Z,24.44
2019-05-06T09:50:49.630Z,24.31
2019-05-06T09:51:52.767Z,24.79
2019-05-06T09:52:52.857Z,24.21
2019-05-06T09:53:53.793Z,23.23
2019-05-06T09:54:55.201Z,23.31
2019-05-06T09:55:56.615Z,22.57
2019-05-06T09:56:58.025Z,21.86
2019-05-06T09:57:59.464Z,21.09
2019-05-06T09:59:02.170Z,20.60
2019-05-06T10:00:04.406Z,20.01
2019-05-06T10:01:03.844Z,19.42
2019-05-06T10:02:05.247Z,19.24
2019-05-06T10:03:06.672Z,18.82
2019-05-06T10:04:08.086Z,18.68
2019-05-06T10:05:11.857Z,19.13
2019-05-06T10:06:12.955Z,19.12
2019-05-06T10:07:12.225Z,18.76
2019-05-06T10:08:13.654Z,18.39
2019-05-06T10:09:16.247Z,18.50
2019-05-06T10:10:17.778Z,18.47
2019-05-06T10:11:17.819Z,18.91
2019-05-06T10:12:19.223Z,19.67
2019-05-06T10:13:20.637Z,19.57
2019-05-06T10:14:23.413Z,19.60
2019-05-06T10:15:23.398Z,19.90
2019-05-06T10:16:24.807Z,19.79
2019-05-06T10:17:26.210Z,19.46
2019-05-06T10:18:27.618Z,19.27
2019-05-06T10:19:29.022Z,18.93
2019-05-06T10:20:32.930Z,18.36
2019-05-06T10:21:32.329Z,18.01
2019-05-06T10:22:33.162Z,17.84
2019-05-06T10:23:34.570Z,17.53
2019-05-06T10:24:35.972Z,17.32
2019-05-06T10:25:37.377Z,16.92
2019-05-06T10:26:38.787Z,16.96
2019-05-06T10:27:42.119Z,16.82
2019-05-06T10:28:41.588Z,16.67
2019-05-06T10:29:43.182Z,16.57
2019-05-06T10:30:44.343Z,16.77
2019-05-06T10:31:45.750Z,16.78
2019-05-06T10:32:47.158Z,16.73
2019-05-06T10:33:48.564Z,16.75
2019-05-06T10:34:52.401Z,16.72
2019-05-06T10:35:52.889Z,16.57
2019-05-06T10:36:53.335Z,16.52
2019-05-06T10:37:54.075Z,16.44
2019-05-06T10:38:55.479Z,16.16
2019-05-06T10:39:56.886Z,16.07
2019-05-06T10:41:03.815Z,15.89
2019-05-06T10:41:59.658Z,15.80
2019-05-06T10:43:02.623Z,15.68
2019-05-06T10:44:02.966Z,15.66
2019-05-06T10:45:03.783Z,15.67
2019-05-06T10:46:05.197Z,15.71
2019-05-06T10:47:06.596Z,15.76
2019-05-06T10:48:07.998Z,15.67
2019-05-06T10:49:09.402Z,15.67
2019-05-06T10:50:12.443Z,15.70
2019-05-06T10:51:13.546Z,15.85
2019-05-06T10:52:13.612Z,16.03
2019-05-06T10:53:15.040Z,16.08
2019-05-06T10:54:16.460Z,16.07
2019-05-06T10:55:17.865Z,16.18
2019-05-06T10:56:19.263Z,16.11
2019-05-06T10:57:22.077Z,16.04
2019-05-06T10:58:22.551Z,15.92
2019-05-06T10:59:23.401Z,15.91
2019-05-06T11:00:24.801Z,15.74
2019-05-06T11:01:26.200Z,15.64
2019-05-06T11:02:27.606Z,15.37
2019-05-06T11:03:29.007Z,15.20
2019-05-06T11:04:30.417Z,15.43
2019-05-06T11:05:32.517Z,15.62
2019-05-06T11:06:33.700Z,15.66
2019-05-06T11:07:35.327Z,15.80
2019-05-06T11:08:35.899Z,15.85
2019-05-06T11:09:37.304Z,15.81
2019-05-06T11:10:41.406Z,15.88
2019-05-06T11:11:42.549Z,15.78
2019-05-06T11:12:42.976Z,15.67
2019-05-06T11:13:42.819Z,15.59
2019-05-06T11:14:44.220Z,15.67
2019-05-06T11:15:45.619Z,15.60
2019-05-06T11:16:47.020Z,15.76
2019-05-06T11:17:48.415Z,15.59
2019-05-06T11:18:49.825Z,15.76
2019-05-06T11:19:53.151Z,15.73
2019-05-06T11:20:55.956Z,15.66
2019-05-06T11:21:53.943Z,15.44
2019-05-06T11:22:55.345Z,15.48
2019-05-06T11:23:56.746Z,15.34
2019-05-06T11:24:58.148Z,15.92
2019-05-06T11:25:59.555Z,16.44
2019-05-06T11:27:03.163Z,17.24
2019-05-06T11:28:02.905Z,17.32
2019-05-06T11:29:05.010Z,17.28
2019-05-06T11:30:05.063Z,16.99
2019-05-06T11:31:09.197Z,16.73
2019-05-06T11:32:07.918Z,16.23
2019-05-06T11:33:09.326Z,16.52
2019-05-06T11:34:12.490Z,17.35
2019-05-06T11:35:12.344Z,18.10
2019-05-06T11:36:15.214Z,18.79
2019-05-06T11:37:15.036Z,19.38
2019-05-06T11:38:16.198Z,20.00
2019-05-06T11:39:17.604Z,20.60
2019-05-06T11:40:19.011Z,21.05
2019-05-06T11:41:20.422Z,21.66
2019-05-06T11:42:31.758Z,21.89
2019-05-06T11:43:23.416Z,22.12
2019-05-06T11:44:24.817Z,21.98
2019-05-06T11:45:26.220Z,22.61
2019-05-06T11:46:27.622Z,23.01
2019-05-06T11:47:29.046Z,23.59
2019-05-06T11:48:32.612Z,24.09
2019-05-06T11:49:32.608Z,24.19
2019-05-06T11:50:33.498Z,23.72
2019-05-06T11:51:34.550Z,22.88
2019-05-06T11:52:35.960Z,21.86
2019-05-06T11:53:37.369Z,21.26
2019-05-06T11:54:38.769Z,20.34
2019-05-06T11:55:40.171Z,19.80
2019-05-06T11:56:49.682Z,19.47
2019-05-06T11:57:44.652Z,19.70
2019-05-06T11:58:44.319Z,20.23
2019-05-06T11:59:45.735Z,20.12
2019-05-06T12:00:47.137Z,19.95
2019-05-06T12:01:48.551Z,19.80
2019-05-06T12:02:49.966Z,19.98
2019-05-06T12:03:52.179Z,20.53
2019-05-06T12:04:53.016Z,20.82
2019-05-06T12:05:54.096Z,20.81
2019-05-06T12:07:09.279Z,20.53
2019-05-06T12:08:04.669Z,19.97
2019-05-06T12:08:58.254Z,19.52
2019-05-06T12:09:59.658Z,19.12
2019-05-06T12:11:02.773Z,18.83
2019-05-06T12:12:03.251Z,18.41
2019-05-06T12:13:03.818Z,18.29
2019-05-06T12:14:05.241Z,18.10
2019-05-06T12:15:07.250Z,17.70
2019-05-06T12:16:08.003Z,17.57
2019-05-06T12:17:09.434Z,17.57
2019-05-06T12:18:12.399Z,17.35
2019-05-06T12:19:13.086Z,17.42
2019-05-06T12:20:13.581Z,17.38
2019-05-06T12:21:19.108Z,17.40
2019-05-06T12:22:16.347Z,17.39
2019-05-06T12:23:17.747Z,17.38
2019-05-06T12:24:19.149Z,17.42
2019-05-06T12:25:23.350Z,17.28
2019-05-06T12:26:21.927Z,17.17
2019-05-06T12:27:23.336Z,16.91
2019-05-06T12:28:24.751Z,16.75
2019-05-06T12:29:26.153Z,16.60
2019-05-06T12:30:27.559Z,16.27
2019-05-06T12:31:28.970Z,16.16
2019-05-06T12:32:32.895Z,16.17
2019-05-06T12:33:32.969Z,16.06
2019-05-06T12:34:33.135Z,16.06
2019-05-06T12:35:34.542Z,15.98
2019-05-06T12:36:35.959Z,15.84
2019-05-06T12:37:37.352Z,15.55
2019-05-06T12:38:38.762Z,15.43
2019-05-06T12:39:40.176Z,15.25
2019-05-06T12:40:42.943Z,15.27
2019-05-06T12:41:43.129Z,15.13
2019-05-06T12:42:44.314Z,14.98
2019-05-06T12:43:45.709Z,14.85
2019-05-06T12:44:47.107Z,14.67
2019-05-06T12:45:48.555Z,14.46
2019-05-06T12:46:52.701Z,14.34
2019-05-06T12:47:53.207Z,14.30
2019-05-06T12:48:52.756Z,14.21
2019-05-06T12:49:54.172Z,14.06
2019-05-06T12:50:55.690Z,13.94
2019-05-06T12:51:57.115Z,13.63
2019-05-06T12:52:58.509Z,13.62
2019-05-06T12:53:59.909Z,13.57
2019-05-06T12:55:16.923Z,13.54
2019-05-06T12:56:03.167Z,13.53
2019-05-06T12:57:04.077Z,13.50
2019-05-06T12:58:05.476Z,13.50
2019-05-06T12:59:06.936Z,13.50
2019-05-06T13:00:08.352Z,13.65
2019-05-06T13:01:09.761Z,13.62
2019-05-06T13:02:12.967Z,13.79
2019-05-06T13:03:12.647Z,13.86
2019-05-06T13:04:14.558Z,13.86
2019-05-06T13:05:15.306Z,13.88
2019-05-06T13:06:16.918Z,13.90
2019-05-06T13:07:18.142Z,13.90
2019-05-06T13:08:21.085Z,13.84
2019-05-06T13:09:22.531Z,13.83
2019-05-06T13:10:23.154Z,14.01
2019-05-06T13:11:23.693Z,13.94
2019-05-06T13:12:25.094Z,14.05
2019-05-06T13:13:26.497Z,14.19
2019-05-06T13:14:27.889Z,14.30
2019-05-06T13:15:29.322Z,14.39
2019-05-06T13:16:33.214Z,14.45
2019-05-06T13:17:32.931Z,14.56
2019-05-06T13:18:33.553Z,14.75
2019-05-06T13:19:34.958Z,14.80
2019-05-06T13:20:36.365Z,14.91
2019-05-06T13:21:37.847Z,15.00
2019-05-06T13:22:39.246Z,15.03